ISW weather

Alexander Field South Wood County Airport
Wisconsin Rapids, Wisconsin, United States

Public forecast

Using degrees Fahrenheit for public forecast. Weather courtesy of forecast.io.

Current aviation weather report (METAR) for Alexander Field South Wood County Airport

Retrieved 2020/02/26 17:54 UTC (16 minutes ago):

KISW 261754Z AUTO 01015G23KT 10SM OVC037 M03/M11 A3018 RMK AO2 SLP235 T10331111 11033 21061 58016

Closest aviation forecast (TAF) to Alexander Field South Wood County Airport

Closest forecast is Central Wisconsin Airport, 26.1 nm (48.4 km) NNE. Retrieved 2020/02/26 18:42 UTC (0 seconds ago):

TAF KCWA 261740Z 2618/2718 35010G15KT P6SM SCT025 BKN035 TEMPO 2618/2619 BKN025 FM261900 34010G15KT P6SM -SHSN BKN022 FM262300 34008KT P6SM -SHSN SCT024 BKN030 FM270100 33006KT P6SM SCT024 SCT060 FM271600 31009G15KT P6SM SCT060